createdAt,value
2023-02-28T00:01:29.320Z,0.80
2023-02-28T00:04:27.327Z,0.80
2023-02-28T00:07:24.797Z,0.80
2023-02-28T00:10:24.189Z,0.76
2023-02-28T00:13:21.747Z,0.70
2023-02-28T00:16:19.545Z,0.70
2023-02-28T00:19:17.063Z,0.70
2023-02-28T00:22:14.939Z,0.68
2023-02-28T00:25:12.426Z,0.60
2023-02-28T00:28:10.169Z,0.60
2023-02-28T00:31:08.021Z,0.60
2023-02-28T00:34:05.590Z,0.54
2023-02-28T00:37:03.225Z,0.50
2023-02-28T00:40:00.728Z,0.50
2023-02-28T00:42:58.584Z,0.48
2023-02-28T00:45:56.060Z,0.42
2023-02-28T00:48:53.813Z,0.40
2023-02-28T00:51:51.789Z,0.40
2023-02-28T00:54:49.347Z,0.40
2023-02-28T00:57:47.114Z,0.40
2023-02-28T01:00:44.572Z,0.30
2023-02-28T01:03:42.355Z,0.30
2023-02-28T01:06:39.904Z,0.30
2023-02-28T01:09:37.579Z,0.30
2023-02-28T01:12:35.341Z,0.30
2023-02-28T01:15:33.090Z,0.30
2023-02-28T01:18:32.015Z,0.30
2023-02-28T01:21:31.176Z,0.30
2023-02-28T01:24:29.064Z,0.30
2023-02-28T01:27:27.620Z,0.30
2023-02-28T01:30:25.431Z,0.30
2023-02-28T01:33:23.202Z,0.40
2023-02-28T01:36:20.751Z,0.40
2023-02-28T01:39:18.517Z,0.40
2023-02-28T01:42:16.084Z,0.40
2023-02-28T01:45:13.844Z,0.40
2023-02-28T01:48:11.437Z,0.40
2023-02-28T01:51:09.280Z,0.40
2023-02-28T01:54:07.144Z,0.40
2023-02-28T01:57:04.604Z,0.40
2023-02-28T02:00:02.372Z,0.40
2023-02-28T02:03:00.119Z,0.40
2023-02-28T02:05:58.007Z,0.44
2023-02-28T02:08:55.608Z,0.42
2023-02-28T02:11:53.437Z,0.46
2023-02-28T02:14:51.217Z,0.50
2023-02-28T02:17:48.666Z,0.50
2023-02-28T02:20:46.433Z,0.50
2023-02-28T02:23:43.875Z,0.50
2023-02-28T02:26:41.770Z,0.54
2023-02-28T02:29:39.644Z,0.54
2023-02-28T02:32:37.208Z,0.50
2023-02-28T02:35:34.838Z,0.50
2023-02-28T02:38:32.304Z,0.50
2023-02-28T02:41:30.212Z,0.50
2023-02-28T02:44:28.058Z,0.50
2023-02-28T02:47:25.928Z,0.50
2023-02-28T02:50:23.802Z,0.50
2023-02-28T02:53:21.260Z,0.50
2023-02-28T02:56:19.029Z,0.40
2023-02-28T02:59:16.469Z,0.40
2023-02-28T03:02:14.115Z,0.40
2023-02-28T03:05:11.563Z,0.40
2023-02-28T03:08:09.377Z,0.38
2023-02-28T03:11:07.041Z,0.30
2023-02-28T03:14:04.602Z,0.30
2023-02-28T03:17:02.380Z,0.20
2023-02-28T03:19:59.849Z,0.16
2023-02-28T03:22:57.702Z,0.10
2023-02-28T03:25:55.162Z,0.10
2023-02-28T03:28:52.843Z,0.06
2023-02-28T03:31:50.859Z,0.00
2023-02-28T03:34:48.567Z,0.00
2023-02-28T03:37:46.236Z,-0.10
2023-02-28T03:40:43.800Z,-0.16
2023-02-28T03:43:41.574Z,-0.20
2023-02-28T03:46:39.131Z,-0.20
2023-02-28T03:49:37.614Z,-0.30
2023-02-28T03:52:35.386Z,-0.30
2023-02-28T03:55:32.842Z,-0.30
2023-02-28T03:58:30.539Z,-0.30
2023-02-28T04:01:28.458Z,-0.40
2023-02-28T04:04:26.571Z,-0.40
2023-02-28T04:07:24.535Z,-0.40
2023-02-28T04:10:22.232Z,-0.40
2023-02-28T04:13:20.054Z,-0.40
2023-02-28T04:16:33.433Z,-0.40
2023-02-28T04:19:31.587Z,-0.40
2023-02-28T04:22:29.130Z,-0.48
2023-02-28T04:25:26.895Z,-0.50
2023-02-28T04:28:24.338Z,-0.50
2023-02-28T04:31:22.805Z,-0.50
2023-02-28T04:34:21.012Z,-0.50
2023-02-28T04:37:18.991Z,-0.50
2023-02-28T04:40:16.956Z,-0.50
2023-02-28T04:43:14.929Z,-0.48
2023-02-28T04:46:13.223Z,-0.42
2023-02-28T04:49:11.177Z,-0.40
2023-02-28T04:52:09.583Z,-0.50
2023-02-28T04:55:07.432Z,-0.50
2023-02-28T04:58:05.815Z,-0.40
2023-02-28T05:01:03.243Z,-0.40
2023-02-28T05:04:01.251Z,-0.40
2023-02-28T05:06:58.729Z,-0.30
2023-02-28T05:09:56.675Z,-0.20
2023-02-28T05:12:54.174Z,-0.20
2023-02-28T05:15:52.004Z,-0.10
2023-02-28T05:18:49.537Z,-0.10
2023-02-28T05:21:47.359Z,0.00
2023-02-28T05:24:44.892Z,0.00
2023-02-28T05:27:42.863Z,0.00
2023-02-28T05:30:40.868Z,-0.06
2023-02-28T05:33:38.324Z,-0.10
2023-02-28T05:36:36.272Z,-0.12
2023-02-28T05:39:34.553Z,-0.20
2023-02-28T05:42:32.018Z,-0.30
2023-02-28T05:45:30.020Z,-0.30
2023-02-28T05:48:28.075Z,-0.40
2023-02-28T05:51:26.126Z,-0.50
2023-02-28T05:54:23.998Z,-0.60
2023-02-28T05:57:24.686Z,-0.66
2023-02-28T06:00:22.949Z,-0.70
2023-02-28T06:03:20.518Z,-0.80
2023-02-28T06:06:18.450Z,-0.80
2023-02-28T06:09:16.524Z,-0.80
2023-02-28T06:12:14.504Z,-0.80
2023-02-28T06:15:12.673Z,-0.80
2023-02-28T06:18:10.477Z,-0.80
2023-02-28T06:21:08.446Z,-0.80
2023-02-28T06:24:05.907Z,-0.80
2023-02-28T06:27:06.638Z,-0.80
2023-02-28T06:30:04.675Z,-0.80
2023-02-28T06:33:02.544Z,-0.80
2023-02-28T06:36:00.532Z,-0.72
2023-02-28T06:38:58.100Z,-0.70
2023-02-28T06:41:56.628Z,-0.70
2023-02-28T06:44:54.351Z,-0.60
2023-02-28T06:47:53.850Z,-0.50
2023-02-28T06:50:51.501Z,-0.46
2023-02-28T06:53:49.289Z,-0.40
2023-02-28T06:56:47.891Z,-0.30
2023-02-28T06:59:45.977Z,-0.30
2023-02-28T07:02:43.470Z,-0.20
2023-02-28T07:05:41.392Z,-0.12
2023-02-28T07:08:38.829Z,-0.10
2023-02-28T07:11:36.698Z,0.00
2023-02-28T07:14:34.164Z,0.00
2023-02-28T07:17:32.110Z,0.10
2023-02-28T07:20:30.024Z,0.10
2023-02-28T07:23:27.883Z,0.10
2023-02-28T07:26:25.336Z,0.20
2023-02-28T07:29:23.315Z,0.30
2023-02-28T07:32:20.957Z,0.50
2023-02-28T07:35:19.042Z,0.64
2023-02-28T07:38:16.498Z,0.80
2023-02-28T07:41:14.372Z,0.80
2023-02-28T07:44:12.553Z,0.80
2023-02-28T07:47:10.378Z,0.90
2023-02-28T07:50:08.393Z,0.90
2023-02-28T07:53:05.875Z,1.00
2023-02-28T07:56:04.154Z,1.04
2023-02-28T07:59:02.637Z,1.20
2023-02-28T08:02:00.625Z,1.28
2023-02-28T08:04:58.169Z,1.42
2023-02-28T08:07:56.236Z,1.60
2023-02-28T08:10:54.559Z,1.66
2023-02-28T08:13:54.020Z,1.86
2023-02-28T08:16:51.881Z,2.00
2023-02-28T08:19:49.359Z,2.20
2023-02-28T08:22:47.443Z,2.40
2023-02-28T08:25:44.919Z,2.50
2023-02-28T08:28:42.846Z,2.60
2023-02-28T08:31:40.936Z,2.80
2023-02-28T08:34:38.738Z,3.12
2023-02-28T08:37:36.204Z,3.40
2023-02-28T08:40:34.145Z,3.70
2023-02-28T08:43:32.113Z,3.80
2023-02-28T08:46:29.771Z,4.14
2023-02-28T08:49:27.615Z,4.86
2023-02-28T08:52:25.190Z,5.42
2023-02-28T08:55:23.245Z,6.44
2023-02-28T08:58:20.707Z,7.76
2023-02-28T09:01:18.738Z,9.88
2023-02-28T09:04:18.610Z,11.90
2023-02-28T09:07:18.647Z,13.86
2023-02-28T09:10:16.128Z,14.10
2023-02-28T09:13:13.657Z,13.92
2023-02-28T09:16:11.696Z,13.70
2023-02-28T09:19:09.612Z,13.36
2023-02-28T09:22:07.181Z,12.30
2023-02-28T09:25:05.041Z,11.72
2023-02-28T09:28:02.498Z,11.40
2023-02-28T09:31:00.858Z,10.92
2023-02-28T09:33:58.371Z,10.60
2023-02-28T09:36:56.612Z,10.50
2023-02-28T09:39:54.829Z,9.88
2023-02-28T09:42:52.269Z,9.60
2023-02-28T09:45:50.279Z,9.40
2023-02-28T09:48:47.752Z,9.10
2023-02-28T09:51:46.825Z,9.42
2023-02-28T09:54:44.278Z,10.90
2023-02-28T09:57:42.329Z,12.76
2023-02-28T10:00:39.838Z,14.64
2023-02-28T10:03:37.825Z,16.20
2023-02-28T10:06:35.304Z,17.22
2023-02-28T10:09:32.836Z,18.28
2023-02-28T10:12:30.307Z,18.62
2023-02-28T10:15:29.011Z,19.34
2023-02-28T10:18:26.752Z,19.68
2023-02-28T10:21:25.051Z,17.34
2023-02-28T10:24:22.590Z,15.86
2023-02-28T10:27:20.056Z,16.00
2023-02-28T10:30:17.737Z,15.82
2023-02-28T10:33:15.309Z,16.20
2023-02-28T10:36:13.981Z,16.80
2023-02-28T10:39:11.486Z,15.82
2023-02-28T10:42:08.968Z,14.66
2023-02-28T10:45:06.885Z,15.40
2023-02-28T10:48:06.071Z,15.64
2023-02-28T10:51:05.115Z,15.50
2023-02-28T10:54:02.884Z,15.46
2023-02-28T10:57:00.843Z,16.98
2023-02-28T10:59:59.237Z,16.48
2023-02-28T11:02:56.774Z,17.00
2023-02-28T11:05:54.920Z,16.40
2023-02-28T11:08:52.401Z,16.80
2023-02-28T11:11:49.898Z,16.78
2023-02-28T11:14:47.946Z,16.56
2023-02-28T11:17:45.838Z,15.70
2023-02-28T11:20:43.308Z,13.84
2023-02-28T11:23:41.089Z,12.48
2023-02-28T11:26:38.961Z,11.10
2023-02-28T11:29:37.297Z,10.04
2023-02-28T11:32:34.816Z,11.10
2023-02-28T11:35:32.828Z,12.64
2023-02-28T11:38:30.290Z,12.96
2023-02-28T11:41:28.673Z,12.60
2023-02-28T11:44:26.369Z,11.64
2023-02-28T11:47:24.315Z,10.48
2023-02-28T11:50:21.786Z,9.66
2023-02-28T11:53:19.711Z,8.92
2023-02-28T11:56:17.149Z,8.20
2023-02-28T11:59:14.644Z,7.70
2023-02-28T12:02:12.228Z,7.16
2023-02-28T12:05:10.024Z,6.80
2023-02-28T12:08:07.480Z,6.68
2023-02-28T12:11:05.326Z,6.50
2023-02-28T12:14:02.763Z,6.40
2023-02-28T12:17:00.845Z,6.40
2023-02-28T12:19:59.385Z,7.00
2023-02-28T12:22:56.893Z,7.30
2023-02-28T12:25:54.995Z,7.10
2023-02-28T12:28:52.561Z,6.80
2023-02-28T12:31:50.615Z,7.16
2023-02-28T12:34:48.170Z,8.02
2023-02-28T12:37:47.416Z,8.18
2023-02-28T12:40:44.880Z,7.64
2023-02-28T12:43:42.817Z,7.36
2023-02-28T12:46:40.707Z,7.20
2023-02-28T12:49:38.869Z,7.20
2023-02-28T12:52:36.333Z,7.10
2023-02-28T12:55:34.295Z,6.90
2023-02-28T12:58:31.800Z,6.78
2023-02-28T13:01:30.595Z,6.70
2023-02-28T13:04:28.622Z,6.80
2023-02-28T13:07:26.676Z,6.70
2023-02-28T13:10:24.216Z,6.50
2023-02-28T13:13:22.030Z,6.30
2023-02-28T13:16:20.030Z,6.20
2023-02-28T13:19:17.438Z,6.10
2023-02-28T13:22:15.469Z,6.12
2023-02-28T13:25:13.393Z,6.20
2023-02-28T13:28:11.262Z,6.20
2023-02-28T13:31:08.805Z,6.20
2023-02-28T13:34:07.713Z,6.30
2023-02-28T13:37:05.184Z,6.30
2023-02-28T13:40:04.686Z,6.30
2023-02-28T13:43:02.561Z,6.30
2023-02-28T13:46:00.094Z,6.40
2023-02-28T13:48:58.114Z,6.70
2023-02-28T13:51:55.960Z,6.80
2023-02-28T13:54:53.651Z,6.90
2023-02-28T13:57:51.603Z,7.10
2023-02-28T14:00:49.045Z,7.20
2023-02-28T14:03:47.036Z,7.30
2023-02-28T14:06:45.004Z,7.26
2023-02-28T14:09:42.452Z,7.30
2023-02-28T14:12:40.429Z,7.30
2023-02-28T14:15:37.984Z,7.50
2023-02-28T14:18:36.053Z,7.52
2023-02-28T14:21:33.563Z,7.50
2023-02-28T14:24:31.512Z,7.70
2023-02-28T14:27:29.337Z,7.90
2023-02-28T14:30:26.795Z,8.10
2023-02-28T14:33:25.621Z,8.20
2023-02-28T14:36:23.076Z,8.30
2023-02-28T14:39:21.080Z,8.30
2023-02-28T14:42:18.528Z,8.24
2023-02-28T14:45:16.492Z,8.10
2023-02-28T14:48:13.955Z,8.00
2023-02-28T14:51:11.878Z,8.00
2023-02-28T14:54:09.685Z,7.82
2023-02-28T14:57:07.660Z,7.62
2023-02-28T15:00:07.288Z,7.50
2023-02-28T15:03:05.236Z,7.40
2023-02-28T15:06:03.333Z,7.22
2023-02-28T15:09:01.234Z,7.10
2023-02-28T15:11:58.707Z,7.00
2023-02-28T15:14:56.612Z,6.82
2023-02-28T15:17:54.110Z,6.80
2023-02-28T15:20:52.139Z,6.70
2023-02-28T15:23:50.016Z,6.70
2023-02-28T15:26:47.497Z,6.60
2023-02-28T15:29:45.290Z,6.50
2023-02-28T15:32:42.943Z,6.40
2023-02-28T15:35:41.132Z,6.32
2023-02-28T15:38:38.676Z,6.30
2023-02-28T15:41:36.718Z,6.12
2023-02-28T15:44:34.772Z,6.00
2023-02-28T15:47:33.798Z,5.88
2023-02-28T15:50:32.036Z,5.76
2023-02-28T15:53:29.879Z,5.60
2023-02-28T15:56:27.361Z,5.50
2023-02-28T15:59:24.839Z,5.40
2023-02-28T16:02:23.798Z,5.32
2023-02-28T16:05:21.769Z,5.30
2023-02-28T16:08:19.903Z,5.20
2023-02-28T16:11:17.501Z,5.20
2023-02-28T16:14:15.340Z,5.10
2023-02-28T16:17:12.821Z,5.10
2023-02-28T16:20:10.884Z,5.06
2023-02-28T16:23:09.509Z,5.00
2023-02-28T16:26:07.633Z,5.00
2023-02-28T16:29:05.905Z,4.90
2023-02-28T16:32:03.865Z,4.90
2023-02-28T16:35:01.891Z,4.90
2023-02-28T16:37:59.424Z,4.90
2023-02-28T16:40:57.387Z,4.80
2023-02-28T16:43:54.873Z,4.70
2023-02-28T16:46:53.740Z,4.70
2023-02-28T16:49:51.737Z,4.60
2023-02-28T16:52:50.855Z,4.58
2023-02-28T16:55:49.017Z,4.50
2023-02-28T16:58:46.524Z,4.50
2023-02-28T17:01:44.587Z,4.40
2023-02-28T17:04:42.602Z,4.40
2023-02-28T17:07:40.574Z,4.40
2023-02-28T17:10:38.479Z,4.34
2023-02-28T17:13:36.597Z,4.30
2023-02-28T17:16:35.005Z,4.20
2023-02-28T17:19:33.184Z,4.10
2023-02-28T17:22:31.891Z,4.00
2023-02-28T17:25:30.013Z,3.90
2023-02-28T17:28:28.183Z,3.80
2023-02-28T17:31:27.435Z,3.70
2023-02-28T17:34:27.538Z,3.60
2023-02-28T17:37:25.186Z,3.50
2023-02-28T17:40:24.221Z,3.40
2023-02-28T17:43:22.520Z,3.30
2023-02-28T17:46:21.646Z,3.20
2023-02-28T17:49:19.654Z,3.10
2023-02-28T17:52:17.608Z,3.00
2023-02-28T17:55:17.226Z,2.90
2023-02-28T17:58:16.380Z,2.80
2023-02-28T18:01:14.772Z,2.70
2023-02-28T18:04:12.819Z,2.64
2023-02-28T18:07:11.413Z,2.56
2023-02-28T18:10:11.305Z,2.48
2023-02-28T18:13:14.158Z,2.32
2023-02-28T18:16:12.584Z,2.26
2023-02-28T18:19:16.037Z,2.20
2023-02-28T18:22:15.834Z,2.10
2023-02-28T18:25:17.372Z,2.00
2023-02-28T18:28:16.951Z,1.90
2023-02-28T18:31:16.804Z,1.78
2023-02-28T18:34:16.370Z,1.70
2023-02-28T18:37:14.645Z,1.60
2023-02-28T18:40:16.145Z,1.60
2023-02-28T18:43:14.334Z,1.50
2023-02-28T18:46:13.060Z,1.50
2023-02-28T18:49:14.524Z,1.40
2023-02-28T18:52:14.332Z,1.32
2023-02-28T18:55:14.920Z,1.30
2023-02-28T18:58:14.174Z,1.20
2023-02-28T19:01:12.905Z,1.20
2023-02-28T19:04:12.278Z,1.10
2023-02-28T19:07:10.915Z,1.10
2023-02-28T19:10:13.723Z,1.06
2023-02-28T19:13:12.282Z,1.00
2023-02-28T19:16:11.372Z,1.00
2023-02-28T19:19:10.209Z,0.90
2023-02-28T19:22:09.928Z,0.90
2023-02-28T19:25:09.571Z,0.90
2023-02-28T19:28:09.641Z,0.80
2023-02-28T19:31:12.427Z,0.80
2023-02-28T19:34:11.229Z,0.72
2023-02-28T19:37:10.028Z,0.70
2023-02-28T19:40:09.951Z,0.70
2023-02-28T19:43:09.206Z,0.70
2023-02-28T19:46:07.431Z,0.60
2023-02-28T19:49:11.733Z,0.60
2023-02-28T19:52:13.321Z,0.56
2023-02-28T19:55:15.161Z,0.50
2023-02-28T19:58:14.773Z,0.50
2023-02-28T20:01:13.338Z,0.44
2023-02-28T20:04:11.913Z,0.40
2023-02-28T20:07:11.684Z,0.40
2023-02-28T20:10:14.043Z,0.30
2023-02-28T20:13:11.914Z,0.22
2023-02-28T20:16:11.218Z,0.20
2023-02-28T20:19:10.412Z,0.20
2023-02-28T20:22:10.618Z,0.10
2023-02-28T20:25:09.590Z,0.10
2023-02-28T20:28:08.225Z,0.10
2023-02-28T20:31:07.332Z,0.10
2023-02-28T20:34:07.150Z,0.10
2023-02-28T20:37:06.926Z,0.00
2023-02-28T20:40:06.486Z,0.04
2023-02-28T20:43:05.158Z,0.02
2023-02-28T20:46:03.854Z,0.00
2023-02-28T20:49:02.877Z,0.00
2023-02-28T20:52:01.010Z,0.00
2023-02-28T20:54:59.448Z,0.00
2023-02-28T20:57:57.439Z,-0.02
2023-02-28T21:00:58.623Z,-0.10
2023-02-28T21:03:56.548Z,-0.10
2023-02-28T21:06:57.019Z,-0.16
2023-02-28T21:09:54.624Z,-0.20
2023-02-28T21:12:58.437Z,-0.24
2023-02-28T21:15:57.360Z,-0.30
2023-02-28T21:18:56.940Z,-0.30
2023-02-28T21:21:55.288Z,-0.30
2023-02-28T21:24:53.325Z,-0.30
2023-02-28T21:27:51.307Z,-0.40
2023-02-28T21:30:48.801Z,-0.40
2023-02-28T21:33:46.349Z,-0.40
2023-02-28T21:36:46.014Z,-0.40
2023-02-28T21:39:43.507Z,-0.40
2023-02-28T21:42:41.562Z,-0.44
2023-02-28T21:45:39.020Z,-0.48
2023-02-28T21:48:37.119Z,-0.48
2023-02-28T21:51:34.784Z,-0.50
2023-02-28T21:54:32.263Z,-0.50
2023-02-28T21:57:30.096Z,-0.50
2023-02-28T22:00:27.647Z,-0.50
2023-02-28T22:03:25.439Z,-0.50
2023-02-28T22:06:22.884Z,-0.50
2023-02-28T22:09:20.679Z,-0.50
2023-02-28T22:12:18.445Z,-0.50
2023-02-28T22:15:16.167Z,-0.50
2023-02-28T22:18:13.868Z,-0.50
2023-02-28T22:21:11.336Z,-0.50
2023-02-28T22:24:09.120Z,-0.50
2023-02-28T22:27:06.891Z,-0.50
2023-02-28T22:30:04.624Z,-0.50
2023-02-28T22:33:02.080Z,-0.50
2023-02-28T22:35:59.870Z,-0.50
2023-02-28T22:38:57.474Z,-0.60
2023-02-28T22:41:54.916Z,-0.60
2023-02-28T22:44:52.748Z,-0.68
2023-02-28T22:47:50.198Z,-0.70
2023-02-28T22:50:47.817Z,-0.70
2023-02-28T22:53:45.275Z,-0.70
2023-02-28T22:56:43.014Z,-0.70
2023-02-28T22:59:40.786Z,-0.76
2023-02-28T23:02:38.219Z,-0.80
2023-02-28T23:05:35.833Z,-0.80
2023-02-28T23:08:33.349Z,-0.80
2023-02-28T23:11:31.128Z,-0.80
2023-02-28T23:14:28.561Z,-0.80
2023-02-28T23:17:26.286Z,-0.82
2023-02-28T23:20:24.127Z,-0.86
2023-02-28T23:23:21.603Z,-0.90
2023-02-28T23:26:19.317Z,-0.90
2023-02-28T23:29:17.644Z,-0.90
2023-02-28T23:32:15.454Z,-0.90
2023-02-28T23:35:13.143Z,-1.00
2023-02-28T23:38:10.821Z,-1.00
2023-02-28T23:41:08.604Z,-1.00
2023-02-28T23:44:06.058Z,-1.00
2023-02-28T23:47:03.809Z,-1.00
2023-02-28T23:50:01.267Z,-1.00
2023-02-28T23:52:58.972Z,-1.02
2023-02-28T23:55:56.457Z,-1.04
2023-02-28T23:58:54.156Z,-1.06
